<?xml version="1.0" encoding="UTF-8" standalone="no" ?>
<gpx xmlns="http://www.topografix.com/GPX/1/1" xmlns:xsi="http://www.w3.org/2001/XMLSchema-instance" xsi:schemaLocation="http://www.topografix.com/GPX/1/1 http://www.topografix.com/GPX/1/1/gpx.xsd" version="1.1" creator="VisuGPX - https://www.visugpx.com">
  <metadata>
    <name>Molières sur cèze - Montalet </name>
    <desc><![CDATA[Une large piste jusqu'au Mas Neuf (ruines), puis le sentier botanique jusqu' au château.]]></desc>
  </metadata>
  <wpt lat="44.26277" lon="4.15744">
    <ele>191.88</ele>
    <name><![CDATA[0000032]]></name>
    <type><![CDATA[Point de départ]]></type>
  </wpt>
  <wpt lat="44.26267" lon="4.1576">
    <ele>195.6</ele>
    <name><![CDATA[0000033]]></name>
    <desc><![CDATA[<p><br /><h3>Nom: Segment: 1</h3><br />Heure de départ: 02/23/2018 08:50<br/>Heure d'arrivée: 02/23/2018 16:01<br/>Distance: 10km (07:11)<br/>Temps déplacement: 02:35<br/>Vitesse moyenne: 1,39 km/h<br/>Vitesse moyenne mouv.: 3,85 km/h<br/>Vitesse Max.: 10,76 km/h<br/>Altitude minimale: 181 m<br/>Altitude maximale: 466 m<br/>Vitesse de montée: 256,2 m/h<br/>Vitesse de descente: -91,8 m/h<br/>Gain d'altitude: 487 m<br/>Perte d'altitude: -483 m<br/>Temps de montée: 01:54<br/>Temps de descente: 05:16<br/></p>]]></desc>
    <type><![CDATA[Point d'arrivée]]></type>
  </wpt>
  <trk>
    <name><![CDATA[2018-02-23 08:50]]></name>
    <desc><![CDATA[<p>Heure de départ: 02/23/2018 08:50<br/>Heure d'arrivée: 02/23/2018 16:01<br/>Distance: 10 km (07:11)<br/>Temps déplacement: 02:35<br/>Vitesse moyenne: 1,39 km/h<br/>Vitesse moyenne mouv.: 3,86 km/h<br/>Vitesse Max.: 10,76 km/h<br/>Altitude minimale: 181 m<br/>Altitude maximale: 466 m<br/>Vitesse de montée: 196,4 m/h<br/>Vitesse de descente: -81 m/h<br/>Gain d'altitude: 406 m<br/>Perte d'altitude: -406 m<br/>Temps de montée: 02:04<br/>Temps de descente: 05:01<br/></p><hr align="center" width="480" style="height: 2px; width: 517px"/>]]></desc>
    <trkseg>
      <trkpt lat="44.26277" lon="4.15744">
        <ele>191.88</ele>
        <time>2018-02-23T07:50:16Z</time>
      </trkpt>
      <trkpt lat="44.26266" lon="4.15766">
        <ele>200.99</ele>
        <time>2018-02-23T07:51:26Z</time>
      </trkpt>
      <trkpt lat="44.26263" lon="4.15793">
        <ele>200.24</ele>
        <time>2018-02-23T07:51:44Z</time>
      </trkpt>
      <trkpt lat="44.2626" lon="4.15819">
        <ele>200.82</ele>
        <time>2018-02-23T07:51:58Z</time>
      </trkpt>
      <trkpt lat="44.26249" lon="4.1584">
        <ele>199.21</ele>
        <time>2018-02-23T07:52:20Z</time>
      </trkpt>
      <trkpt lat="44.26231" lon="4.15833">
        <ele>196.69</ele>
        <time>2018-02-23T07:52:42Z</time>
      </trkpt>
      <trkpt lat="44.26213" lon="4.15827">
        <ele>198.7</ele>
        <time>2018-02-23T07:53:06Z</time>
      </trkpt>
      <trkpt lat="44.26194" lon="4.1582">
        <ele>193.73</ele>
        <time>2018-02-23T07:53:26Z</time>
      </trkpt>
      <trkpt lat="44.26177" lon="4.15815">
        <ele>191.95</ele>
        <time>2018-02-23T07:53:44Z</time>
      </trkpt>
      <trkpt lat="44.26157" lon="4.15811">
        <ele>191.77</ele>
        <time>2018-02-23T07:54:01Z</time>
      </trkpt>
      <trkpt lat="44.2614" lon="4.15799">
        <ele>191.66</ele>
        <time>2018-02-23T07:54:15Z</time>
      </trkpt>
      <trkpt lat="44.2614" lon="4.15773">
        <ele>198.31</ele>
        <time>2018-02-23T07:54:33Z</time>
      </trkpt>
      <trkpt lat="44.26131" lon="4.15751">
        <ele>199.12</ele>
        <time>2018-02-23T07:54:51Z</time>
      </trkpt>
      <trkpt lat="44.2611" lon="4.15753">
        <ele>196.2</ele>
        <time>2018-02-23T07:55:07Z</time>
      </trkpt>
      <trkpt lat="44.26099" lon="4.15777">
        <ele>199.67</ele>
        <time>2018-02-23T07:55:23Z</time>
      </trkpt>
      <trkpt lat="44.26091" lon="4.15801">
        <ele>197.77</ele>
        <time>2018-02-23T07:55:39Z</time>
      </trkpt>
      <trkpt lat="44.26084" lon="4.15826">
        <ele>202.28</ele>
        <time>2018-02-23T07:55:53Z</time>
      </trkpt>
      <trkpt lat="44.26074" lon="4.15848">
        <ele>196.84</ele>
        <time>2018-02-23T07:56:09Z</time>
      </trkpt>
      <trkpt lat="44.26058" lon="4.1586">
        <ele>194.69</ele>
        <time>2018-02-23T07:56:23Z</time>
      </trkpt>
      <trkpt lat="44.26044" lon="4.1588">
        <ele>200.39</ele>
        <time>2018-02-23T07:56:39Z</time>
      </trkpt>
      <trkpt lat="44.26028" lon="4.15894">
        <ele>199.37</ele>
        <time>2018-02-23T07:57:01Z</time>
      </trkpt>
      <trkpt lat="44.26012" lon="4.15909">
        <ele>199.91</ele>
        <time>2018-02-23T07:57:15Z</time>
      </trkpt>
      <trkpt lat="44.26" lon="4.15929">
        <ele>202.21</ele>
        <time>2018-02-23T07:57:31Z</time>
      </trkpt>
      <trkpt lat="44.25983" lon="4.1594">
        <ele>196.74</ele>
        <time>2018-02-23T07:57:47Z</time>
      </trkpt>
      <trkpt lat="44.25929" lon="4.15926">
        <ele>199.93</ele>
        <time>2018-02-23T07:58:21Z</time>
      </trkpt>
      <trkpt lat="44.25926" lon="4.15899">
        <ele>197.91</ele>
        <time>2018-02-23T07:58:45Z</time>
      </trkpt>
      <trkpt lat="44.25913" lon="4.15869">
        <ele>201.28</ele>
        <time>2018-02-23T07:59:12Z</time>
      </trkpt>
      <trkpt lat="44.25917" lon="4.15843">
        <ele>205.9</ele>
        <time>2018-02-23T07:59:26Z</time>
      </trkpt>
      <trkpt lat="44.25901" lon="4.15831">
        <ele>206.1</ele>
        <time>2018-02-23T07:59:44Z</time>
      </trkpt>
      <trkpt lat="44.25885" lon="4.15817">
        <ele>203.82</ele>
        <time>2018-02-23T07:59:56Z</time>
      </trkpt>
      <trkpt lat="44.2587" lon="4.15798">
        <ele>213.79</ele>
        <time>2018-02-23T08:00:42Z</time>
      </trkpt>
      <trkpt lat="44.25853" lon="4.15788">
        <ele>215.68</ele>
        <time>2018-02-23T08:00:56Z</time>
      </trkpt>
      <trkpt lat="44.25834" lon="4.15782">
        <ele>215.96</ele>
        <time>2018-02-23T08:01:14Z</time>
      </trkpt>
      <trkpt lat="44.25816" lon="4.15781">
        <ele>213.03</ele>
        <time>2018-02-23T08:01:32Z</time>
      </trkpt>
      <trkpt lat="44.25799" lon="4.15771">
        <ele>221.21</ele>
        <time>2018-02-23T08:01:52Z</time>
      </trkpt>
      <trkpt lat="44.25785" lon="4.15752">
        <ele>224.76</ele>
        <time>2018-02-23T08:02:10Z</time>
      </trkpt>
      <trkpt lat="44.25773" lon="4.15732">
        <ele>227.13</ele>
        <time>2018-02-23T08:02:34Z</time>
      </trkpt>
      <trkpt lat="44.25764" lon="4.1571">
        <ele>226.61</ele>
        <time>2018-02-23T08:02:58Z</time>
      </trkpt>
      <trkpt lat="44.25743" lon="4.15706">
        <ele>224.09</ele>
        <time>2018-02-23T08:03:14Z</time>
      </trkpt>
      <trkpt lat="44.25725" lon="4.15708">
        <ele>230.25</ele>
        <time>2018-02-23T08:03:30Z</time>
      </trkpt>
      <trkpt lat="44.25707" lon="4.15716">
        <ele>232.22</ele>
        <time>2018-02-23T08:03:48Z</time>
      </trkpt>
      <trkpt lat="44.25693" lon="4.15733">
        <ele>231.7</ele>
        <time>2018-02-23T08:04:06Z</time>
      </trkpt>
      <trkpt lat="44.25693" lon="4.15708">
        <ele>232.32</ele>
        <time>2018-02-23T08:04:50Z</time>
      </trkpt>
      <trkpt lat="44.25694" lon="4.15677">
        <ele>230.41</ele>
        <time>2018-02-23T08:05:10Z</time>
      </trkpt>
      <trkpt lat="44.25686" lon="4.15652">
        <ele>234.34</ele>
        <time>2018-02-23T08:05:24Z</time>
      </trkpt>
      <trkpt lat="44.25677" lon="4.15628">
        <ele>242.34</ele>
        <time>2018-02-23T08:05:36Z</time>
      </trkpt>
      <trkpt lat="44.25667" lon="4.15607">
        <ele>234.53</ele>
        <time>2018-02-23T08:05:56Z</time>
      </trkpt>
      <trkpt lat="44.25656" lon="4.15587">
        <ele>233.49</ele>
        <time>2018-02-23T08:06:22Z</time>
      </trkpt>
      <trkpt lat="44.25646" lon="4.15565">
        <ele>241.72</ele>
        <time>2018-02-23T08:06:38Z</time>
      </trkpt>
      <trkpt lat="44.2564" lon="4.15539">
        <ele>243.99</ele>
        <time>2018-02-23T08:06:52Z</time>
      </trkpt>
      <trkpt lat="44.25634" lon="4.15512">
        <ele>247.55</ele>
        <time>2018-02-23T08:07:08Z</time>
      </trkpt>
      <trkpt lat="44.25627" lon="4.15486">
        <ele>248.03</ele>
        <time>2018-02-23T08:07:24Z</time>
      </trkpt>
      <trkpt lat="44.25618" lon="4.15463">
        <ele>250.03</ele>
        <time>2018-02-23T08:07:40Z</time>
      </trkpt>
      <trkpt lat="44.25598" lon="4.15459">
        <ele>244.8</ele>
        <time>2018-02-23T08:07:56Z</time>
      </trkpt>
      <trkpt lat="44.25593" lon="4.15484">
        <ele>247.27</ele>
        <time>2018-02-23T08:08:14Z</time>
      </trkpt>
      <trkpt lat="44.25607" lon="4.15504">
        <ele>247.96</ele>
        <time>2018-02-23T08:08:32Z</time>
      </trkpt>
      <trkpt lat="44.25616" lon="4.1553">
        <ele>250.99</ele>
        <time>2018-02-23T08:08:50Z</time>
      </trkpt>
      <trkpt lat="44.25619" lon="4.15557">
        <ele>248.79</ele>
        <time>2018-02-23T08:09:08Z</time>
      </trkpt>
      <trkpt lat="44.25615" lon="4.15582">
        <ele>253.16</ele>
        <time>2018-02-23T08:09:20Z</time>
      </trkpt>
      <trkpt lat="44.25606" lon="4.15606">
        <ele>250.59</ele>
        <time>2018-02-23T08:09:36Z</time>
      </trkpt>
      <trkpt lat="44.25598" lon="4.15629">
        <ele>257.05</ele>
        <time>2018-02-23T08:09:58Z</time>
      </trkpt>
      <trkpt lat="44.25582" lon="4.15643">
        <ele>256.4</ele>
        <time>2018-02-23T08:10:10Z</time>
      </trkpt>
      <trkpt lat="44.25586" lon="4.15669">
        <ele>257.45</ele>
        <time>2018-02-23T08:10:32Z</time>
      </trkpt>
      <trkpt lat="44.25591" lon="4.15697">
        <ele>267.33</ele>
        <time>2018-02-23T08:10:50Z</time>
      </trkpt>
      <trkpt lat="44.25594" lon="4.15725">
        <ele>266.58</ele>
        <time>2018-02-23T08:11:10Z</time>
      </trkpt>
      <trkpt lat="44.25588" lon="4.15751">
        <ele>273.01</ele>
        <time>2018-02-23T08:11:26Z</time>
      </trkpt>
      <trkpt lat="44.2558" lon="4.15777">
        <ele>275.56</ele>
        <time>2018-02-23T08:11:46Z</time>
      </trkpt>
      <trkpt lat="44.25584" lon="4.15805">
        <ele>282.48</ele>
        <time>2018-02-23T08:12:00Z</time>
      </trkpt>
      <trkpt lat="44.25593" lon="4.15828">
        <ele>282.48</ele>
        <time>2018-02-23T08:12:14Z</time>
      </trkpt>
      <trkpt lat="44.2561" lon="4.15843">
        <ele>279.31</ele>
        <time>2018-02-23T08:12:32Z</time>
      </trkpt>
      <trkpt lat="44.25622" lon="4.15865">
        <ele>278.29</ele>
        <time>2018-02-23T08:12:50Z</time>
      </trkpt>
      <trkpt lat="44.25615" lon="4.1589">
        <ele>278.4</ele>
        <time>2018-02-23T08:13:06Z</time>
      </trkpt>
      <trkpt lat="44.25604" lon="4.15912">
        <ele>278.31</ele>
        <time>2018-02-23T08:13:22Z</time>
      </trkpt>
      <trkpt lat="44.25588" lon="4.15926">
        <ele>283.01</ele>
        <time>2018-02-23T08:13:46Z</time>
      </trkpt>
      <trkpt lat="44.25574" lon="4.15942">
        <ele>283.51</ele>
        <time>2018-02-23T08:14:06Z</time>
      </trkpt>
      <trkpt lat="44.25557" lon="4.15952">
        <ele>278.51</ele>
        <time>2018-02-23T08:14:22Z</time>
      </trkpt>
      <trkpt lat="44.25537" lon="4.15959">
        <ele>285.06</ele>
        <time>2018-02-23T08:14:38Z</time>
      </trkpt>
      <trkpt lat="44.25519" lon="4.15964">
        <ele>288.68</ele>
        <time>2018-02-23T08:14:56Z</time>
      </trkpt>
      <trkpt lat="44.25501" lon="4.15967">
        <ele>292.7</ele>
        <time>2018-02-23T08:15:08Z</time>
      </trkpt>
      <trkpt lat="44.25487" lon="4.15982">
        <ele>299.67</ele>
        <time>2018-02-23T08:15:24Z</time>
      </trkpt>
      <trkpt lat="44.25473" lon="4.16002">
        <ele>300.99</ele>
        <time>2018-02-23T08:15:40Z</time>
      </trkpt>
      <trkpt lat="44.25474" lon="4.16029">
        <ele>300.52</ele>
        <time>2018-02-23T08:15:58Z</time>
      </trkpt>
      <trkpt lat="44.25491" lon="4.16041">
        <ele>296.81</ele>
        <time>2018-02-23T08:16:16Z</time>
      </trkpt>
      <trkpt lat="44.25505" lon="4.16058">
        <ele>298.87</ele>
        <time>2018-02-23T08:16:30Z</time>
      </trkpt>
      <trkpt lat="44.25512" lon="4.16084">
        <ele>301.12</ele>
        <time>2018-02-23T08:16:46Z</time>
      </trkpt>
      <trkpt lat="44.25525" lon="4.16103">
        <ele>304.7</ele>
        <time>2018-02-23T08:17:06Z</time>
      </trkpt>
      <trkpt lat="44.25541" lon="4.1612">
        <ele>306.63</ele>
        <time>2018-02-23T08:17:20Z</time>
      </trkpt>
      <trkpt lat="44.25555" lon="4.16143">
        <ele>307.76</ele>
        <time>2018-02-23T08:17:36Z</time>
      </trkpt>
      <trkpt lat="44.25568" lon="4.16161">
        <ele>312.32</ele>
        <time>2018-02-23T08:17:52Z</time>
      </trkpt>
      <trkpt lat="44.25549" lon="4.16148">
        <ele>297.08</ele>
        <time>2018-02-23T08:18:50Z</time>
      </trkpt>
      <trkpt lat="44.25535" lon="4.16133">
        <ele>289.49</ele>
        <time>2018-02-23T08:19:06Z</time>
      </trkpt>
      <trkpt lat="44.25518" lon="4.16119">
        <ele>293.96</ele>
        <time>2018-02-23T08:19:24Z</time>
      </trkpt>
      <trkpt lat="44.25501" lon="4.16105">
        <ele>304.99</ele>
        <time>2018-02-23T08:19:42Z</time>
      </trkpt>
      <trkpt lat="44.25485" lon="4.16088">
        <ele>305.66</ele>
        <time>2018-02-23T08:20:00Z</time>
      </trkpt>
      <trkpt lat="44.25468" lon="4.16079">
        <ele>300.92</ele>
        <time>2018-02-23T08:20:20Z</time>
      </trkpt>
      <trkpt lat="44.25449" lon="4.16072">
        <ele>303.32</ele>
        <time>2018-02-23T08:20:38Z</time>
      </trkpt>
      <trkpt lat="44.25432" lon="4.16063">
        <ele>305.6</ele>
        <time>2018-02-23T08:21:02Z</time>
      </trkpt>
      <trkpt lat="44.25422" lon="4.16042">
        <ele>305.72</ele>
        <time>2018-02-23T08:21:20Z</time>
      </trkpt>
      <trkpt lat="44.25412" lon="4.16018">
        <ele>307.9</ele>
        <time>2018-02-23T08:21:38Z</time>
      </trkpt>
      <trkpt lat="44.25407" lon="4.15994">
        <ele>312.58</ele>
        <time>2018-02-23T08:21:52Z</time>
      </trkpt>
      <trkpt lat="44.25388" lon="4.15991">
        <ele>311.31</ele>
        <time>2018-02-23T08:22:08Z</time>
      </trkpt>
      <trkpt lat="44.25369" lon="4.15995">
        <ele>313.43</ele>
        <time>2018-02-23T08:22:26Z</time>
      </trkpt>
      <trkpt lat="44.25351" lon="4.15991">
        <ele>312.12</ele>
        <time>2018-02-23T08:22:44Z</time>
      </trkpt>
      <trkpt lat="44.25335" lon="4.15979">
        <ele>313.14</ele>
        <time>2018-02-23T08:23:00Z</time>
      </trkpt>
      <trkpt lat="44.25317" lon="4.15964">
        <ele>315.68</ele>
        <time>2018-02-23T08:23:20Z</time>
      </trkpt>
      <trkpt lat="44.25301" lon="4.15948">
        <ele>318.37</ele>
        <time>2018-02-23T08:23:36Z</time>
      </trkpt>
      <trkpt lat="44.25285" lon="4.15935">
        <ele>319.08</ele>
        <time>2018-02-23T08:23:52Z</time>
      </trkpt>
      <trkpt lat="44.25277" lon="4.15911">
        <ele>322.56</ele>
        <time>2018-02-23T08:24:14Z</time>
      </trkpt>
      <trkpt lat="44.2528" lon="4.15885">
        <ele>331.83</ele>
        <time>2018-02-23T08:24:32Z</time>
      </trkpt>
      <trkpt lat="44.25268" lon="4.15863">
        <ele>335.35</ele>
        <time>2018-02-23T08:24:46Z</time>
      </trkpt>
      <trkpt lat="44.2526" lon="4.15838">
        <ele>338.93</ele>
        <time>2018-02-23T08:25:06Z</time>
      </trkpt>
      <trkpt lat="44.25249" lon="4.15814">
        <ele>348.94</ele>
        <time>2018-02-23T08:25:24Z</time>
      </trkpt>
      <trkpt lat="44.2524" lon="4.15792">
        <ele>352.86</ele>
        <time>2018-02-23T08:25:42Z</time>
      </trkpt>
      <trkpt lat="44.25249" lon="4.15769">
        <ele>364.87</ele>
        <time>2018-02-23T08:33:06Z</time>
      </trkpt>
      <trkpt lat="44.25268" lon="4.15773">
        <ele>365.95</ele>
        <time>2018-02-23T08:33:30Z</time>
      </trkpt>
      <trkpt lat="44.25279" lon="4.1575">
        <ele>366.03</ele>
        <time>2018-02-23T08:33:52Z</time>
      </trkpt>
      <trkpt lat="44.25281" lon="4.15724">
        <ele>370.88</ele>
        <time>2018-02-23T08:34:08Z</time>
      </trkpt>
      <trkpt lat="44.25278" lon="4.15698">
        <ele>363.62</ele>
        <time>2018-02-23T08:34:34Z</time>
      </trkpt>
      <trkpt lat="44.25267" lon="4.15675">
        <ele>361</ele>
        <time>2018-02-23T08:34:46Z</time>
      </trkpt>
      <trkpt lat="44.25272" lon="4.1565">
        <ele>363.11</ele>
        <time>2018-02-23T08:35:06Z</time>
      </trkpt>
      <trkpt lat="44.2528" lon="4.15626">
        <ele>362.17</ele>
        <time>2018-02-23T08:35:26Z</time>
      </trkpt>
      <trkpt lat="44.25285" lon="4.15601">
        <ele>364.32</ele>
        <time>2018-02-23T08:35:44Z</time>
      </trkpt>
      <trkpt lat="44.25289" lon="4.15576">
        <ele>366.35</ele>
        <time>2018-02-23T08:36:02Z</time>
      </trkpt>
      <trkpt lat="44.25294" lon="4.1555">
        <ele>370.2</ele>
        <time>2018-02-23T08:36:22Z</time>
      </trkpt>
      <trkpt lat="44.25301" lon="4.15525">
        <ele>370.26</ele>
        <time>2018-02-23T08:36:40Z</time>
      </trkpt>
      <trkpt lat="44.25302" lon="4.15499">
        <ele>371.86</ele>
        <time>2018-02-23T08:36:56Z</time>
      </trkpt>
      <trkpt lat="44.25301" lon="4.15471">
        <ele>372.37</ele>
        <time>2018-02-23T08:37:16Z</time>
      </trkpt>
      <trkpt lat="44.25297" lon="4.15444">
        <ele>375.82</ele>
        <time>2018-02-23T08:37:32Z</time>
      </trkpt>
      <trkpt lat="44.25287" lon="4.15421">
        <ele>371.64</ele>
        <time>2018-02-23T08:37:56Z</time>
      </trkpt>
      <trkpt lat="44.25289" lon="4.15449">
        <ele>373.01</ele>
        <time>2018-02-23T08:38:26Z</time>
      </trkpt>
      <trkpt lat="44.25288" lon="4.15476">
        <ele>376.88</ele>
        <time>2018-02-23T08:38:46Z</time>
      </trkpt>
      <trkpt lat="44.25275" lon="4.15494">
        <ele>384.26</ele>
        <time>2018-02-23T08:39:04Z</time>
      </trkpt>
      <trkpt lat="44.25259" lon="4.15512">
        <ele>382.77</ele>
        <time>2018-02-23T08:39:24Z</time>
      </trkpt>
      <trkpt lat="44.25244" lon="4.15524">
        <ele>389.3</ele>
        <time>2018-02-23T08:39:36Z</time>
      </trkpt>
      <trkpt lat="44.25228" lon="4.15538">
        <ele>394.25</ele>
        <time>2018-02-23T08:39:52Z</time>
      </trkpt>
      <trkpt lat="44.25212" lon="4.15552">
        <ele>396.44</ele>
        <time>2018-02-23T08:40:12Z</time>
      </trkpt>
      <trkpt lat="44.25195" lon="4.15562">
        <ele>392.81</ele>
        <time>2018-02-23T08:40:28Z</time>
      </trkpt>
      <trkpt lat="44.25179" lon="4.15581">
        <ele>394.92</ele>
        <time>2018-02-23T08:40:52Z</time>
      </trkpt>
      <trkpt lat="44.25168" lon="4.15606">
        <ele>401.32</ele>
        <time>2018-02-23T08:41:08Z</time>
      </trkpt>
      <trkpt lat="44.25161" lon="4.15633">
        <ele>401.66</ele>
        <time>2018-02-23T08:41:28Z</time>
      </trkpt>
      <trkpt lat="44.25154" lon="4.15658">
        <ele>406.81</ele>
        <time>2018-02-23T08:41:52Z</time>
      </trkpt>
      <trkpt lat="44.25148" lon="4.15684">
        <ele>405.04</ele>
        <time>2018-02-23T08:42:10Z</time>
      </trkpt>
      <trkpt lat="44.25145" lon="4.15711">
        <ele>402.81</ele>
        <time>2018-02-23T08:42:26Z</time>
      </trkpt>
      <trkpt lat="44.25134" lon="4.15735">
        <ele>404.46</ele>
        <time>2018-02-23T08:42:40Z</time>
      </trkpt>
      <trkpt lat="44.25119" lon="4.15751">
        <ele>407.88</ele>
        <time>2018-02-23T08:42:58Z</time>
      </trkpt>
      <trkpt lat="44.25117" lon="4.15724">
        <ele>414.33</ele>
        <time>2018-02-23T08:43:36Z</time>
      </trkpt>
      <trkpt lat="44.25126" lon="4.15701">
        <ele>414.36</ele>
        <time>2018-02-23T08:43:56Z</time>
      </trkpt>
      <trkpt lat="44.25127" lon="4.15675">
        <ele>414.44</ele>
        <time>2018-02-23T08:44:12Z</time>
      </trkpt>
      <trkpt lat="44.25131" lon="4.1565">
        <ele>417.63</ele>
        <time>2018-02-23T08:44:30Z</time>
      </trkpt>
      <trkpt lat="44.2513" lon="4.15622">
        <ele>418.31</ele>
        <time>2018-02-23T08:44:48Z</time>
      </trkpt>
      <trkpt lat="44.25133" lon="4.15594">
        <ele>413.4</ele>
        <time>2018-02-23T08:45:06Z</time>
      </trkpt>
      <trkpt lat="44.2513" lon="4.15569">
        <ele>418.31</ele>
        <time>2018-02-23T08:45:42Z</time>
      </trkpt>
      <trkpt lat="44.25139" lon="4.15544">
        <ele>418.46</ele>
        <time>2018-02-23T08:46:04Z</time>
      </trkpt>
      <trkpt lat="44.25143" lon="4.15518">
        <ele>418.97</ele>
        <time>2018-02-23T08:46:24Z</time>
      </trkpt>
      <trkpt lat="44.25145" lon="4.1549">
        <ele>422.38</ele>
        <time>2018-02-23T08:46:40Z</time>
      </trkpt>
      <trkpt lat="44.25147" lon="4.15464">
        <ele>408.95</ele>
        <time>2018-02-23T08:46:58Z</time>
      </trkpt>
      <trkpt lat="44.25142" lon="4.15438">
        <ele>412.09</ele>
        <time>2018-02-23T08:47:16Z</time>
      </trkpt>
      <trkpt lat="44.25131" lon="4.15418">
        <ele>412.96</ele>
        <time>2018-02-23T08:47:34Z</time>
      </trkpt>
      <trkpt lat="44.25114" lon="4.15408">
        <ele>416.98</ele>
        <time>2018-02-23T08:47:50Z</time>
      </trkpt>
      <trkpt lat="44.25099" lon="4.15393">
        <ele>419.69</ele>
        <time>2018-02-23T08:48:04Z</time>
      </trkpt>
      <trkpt lat="44.25089" lon="4.1537">
        <ele>425.67</ele>
        <time>2018-02-23T08:48:24Z</time>
      </trkpt>
      <trkpt lat="44.25081" lon="4.15348">
        <ele>425.54</ele>
        <time>2018-02-23T08:48:42Z</time>
      </trkpt>
      <trkpt lat="44.25079" lon="4.15322">
        <ele>423.53</ele>
        <time>2018-02-23T08:49:00Z</time>
      </trkpt>
      <trkpt lat="44.25075" lon="4.15297">
        <ele>418.16</ele>
        <time>2018-02-23T08:49:22Z</time>
      </trkpt>
      <trkpt lat="44.2507" lon="4.1527">
        <ele>417.83</ele>
        <time>2018-02-23T08:58:14Z</time>
      </trkpt>
      <trkpt lat="44.25061" lon="4.15245">
        <ele>422.25</ele>
        <time>2018-02-23T08:58:30Z</time>
      </trkpt>
      <trkpt lat="44.25063" lon="4.15217">
        <ele>425.65</ele>
        <time>2018-02-23T08:58:48Z</time>
      </trkpt>
      <trkpt lat="44.25058" lon="4.15192">
        <ele>428.27</ele>
        <time>2018-02-23T08:59:06Z</time>
      </trkpt>
      <trkpt lat="44.2506" lon="4.15167">
        <ele>432.82</ele>
        <time>2018-02-23T08:59:26Z</time>
      </trkpt>
      <trkpt lat="44.2506" lon="4.15141">
        <ele>432.23</ele>
        <time>2018-02-23T08:59:48Z</time>
      </trkpt>
      <trkpt lat="44.25054" lon="4.15116">
        <ele>435.43</ele>
        <time>2018-02-23T09:00:06Z</time>
      </trkpt>
      <trkpt lat="44.25042" lon="4.15097">
        <ele>439.22</ele>
        <time>2018-02-23T09:00:18Z</time>
      </trkpt>
      <trkpt lat="44.25022" lon="4.15103">
        <ele>442.36</ele>
        <time>2018-02-23T09:00:38Z</time>
      </trkpt>
      <trkpt lat="44.25009" lon="4.15124">
        <ele>440.76</ele>
        <time>2018-02-23T09:01:24Z</time>
      </trkpt>
      <trkpt lat="44.25007" lon="4.15151">
        <ele>431.59</ele>
        <time>2018-02-23T09:01:38Z</time>
      </trkpt>
      <trkpt lat="44.25001" lon="4.15177">
        <ele>433.83</ele>
        <time>2018-02-23T09:01:56Z</time>
      </trkpt>
      <trkpt lat="44.24998" lon="4.15204">
        <ele>437.69</ele>
        <time>2018-02-23T09:02:14Z</time>
      </trkpt>
      <trkpt lat="44.25003" lon="4.15231">
        <ele>438.84</ele>
        <time>2018-02-23T09:02:26Z</time>
      </trkpt>
      <trkpt lat="44.25005" lon="4.15258">
        <ele>440.75</ele>
        <time>2018-02-23T09:02:52Z</time>
      </trkpt>
      <trkpt lat="44.25022" lon="4.15263">
        <ele>436.08</ele>
        <time>2018-02-23T09:03:04Z</time>
      </trkpt>
      <trkpt lat="44.25042" lon="4.15276">
        <ele>438.57</ele>
        <time>2018-02-23T09:03:24Z</time>
      </trkpt>
      <trkpt lat="44.25037" lon="4.15303">
        <ele>440.2</ele>
        <time>2018-02-23T09:03:40Z</time>
      </trkpt>
      <trkpt lat="44.25032" lon="4.1533">
        <ele>433.5</ele>
        <time>2018-02-23T09:04:04Z</time>
      </trkpt>
      <trkpt lat="44.25048" lon="4.15346">
        <ele>426.63</ele>
        <time>2018-02-23T09:04:24Z</time>
      </trkpt>
      <trkpt lat="44.2505" lon="4.15371">
        <ele>433</ele>
        <time>2018-02-23T09:04:48Z</time>
      </trkpt>
      <trkpt lat="44.2506" lon="4.15396">
        <ele>432.83</ele>
        <time>2018-02-23T09:05:06Z</time>
      </trkpt>
      <trkpt lat="44.25067" lon="4.15419">
        <ele>435.19</ele>
        <time>2018-02-23T09:05:16Z</time>
      </trkpt>
      <trkpt lat="44.25067" lon="4.15446">
        <ele>441.31</ele>
        <time>2018-02-23T09:05:26Z</time>
      </trkpt>
      <trkpt lat="44.25075" lon="4.15471">
        <ele>449.49</ele>
        <time>2018-02-23T09:05:46Z</time>
      </trkpt>
      <trkpt lat="44.25091" lon="4.1549">
        <ele>450.95</ele>
        <time>2018-02-23T09:05:56Z</time>
      </trkpt>
      <trkpt lat="44.25089" lon="4.15515">
        <ele>450.21</ele>
        <time>2018-02-23T09:06:16Z</time>
      </trkpt>
      <trkpt lat="44.25098" lon="4.15538">
        <ele>452.53</ele>
        <time>2018-02-23T09:06:37Z</time>
      </trkpt>
      <trkpt lat="44.25081" lon="4.15557">
        <ele>446.38</ele>
        <time>2018-02-23T09:06:45Z</time>
      </trkpt>
      <trkpt lat="44.25087" lon="4.15583">
        <ele>433.93</ele>
        <time>2018-02-23T09:07:25Z</time>
      </trkpt>
      <trkpt lat="44.25089" lon="4.15611">
        <ele>434.3</ele>
        <time>2018-02-23T09:07:43Z</time>
      </trkpt>
      <trkpt lat="44.25088" lon="4.1564">
        <ele>435.12</ele>
        <time>2018-02-23T09:08:09Z</time>
      </trkpt>
      <trkpt lat="44.25074" lon="4.15661">
        <ele>433.52</ele>
        <time>2018-02-23T09:08:17Z</time>
      </trkpt>
      <trkpt lat="44.25059" lon="4.15682">
        <ele>428.55</ele>
        <time>2018-02-23T09:08:25Z</time>
      </trkpt>
      <trkpt lat="44.2506" lon="4.1571">
        <ele>423.73</ele>
        <time>2018-02-23T09:08:51Z</time>
      </trkpt>
      <trkpt lat="44.25067" lon="4.15734">
        <ele>427.39</ele>
        <time>2018-02-23T09:09:09Z</time>
      </trkpt>
      <trkpt lat="44.25061" lon="4.15759">
        <ele>429.04</ele>
        <time>2018-02-23T09:09:35Z</time>
      </trkpt>
      <trkpt lat="44.25056" lon="4.15783">
        <ele>424.8</ele>
        <time>2018-02-23T09:09:47Z</time>
      </trkpt>
      <trkpt lat="44.25051" lon="4.15809">
        <ele>423.4</ele>
        <time>2018-02-23T09:10:13Z</time>
      </trkpt>
      <trkpt lat="44.25049" lon="4.15835">
        <ele>425.32</ele>
        <time>2018-02-23T09:10:29Z</time>
      </trkpt>
      <trkpt lat="44.25048" lon="4.15862">
        <ele>433.93</ele>
        <time>2018-02-23T09:10:45Z</time>
      </trkpt>
      <trkpt lat="44.25048" lon="4.15887">
        <ele>439.67</ele>
        <time>2018-02-23T09:11:15Z</time>
      </trkpt>
      <trkpt lat="44.25066" lon="4.15895">
        <ele>435.45</ele>
        <time>2018-02-23T09:11:39Z</time>
      </trkpt>
      <trkpt lat="44.25082" lon="4.15908">
        <ele>431.38</ele>
        <time>2018-02-23T09:12:03Z</time>
      </trkpt>
      <trkpt lat="44.25096" lon="4.15924">
        <ele>433</ele>
        <time>2018-02-23T09:12:19Z</time>
      </trkpt>
      <trkpt lat="44.25108" lon="4.15944">
        <ele>431.3</ele>
        <time>2018-02-23T09:12:39Z</time>
      </trkpt>
      <trkpt lat="44.25119" lon="4.15966">
        <ele>435.25</ele>
        <time>2018-02-23T09:12:59Z</time>
      </trkpt>
      <trkpt lat="44.25123" lon="4.15993">
        <ele>441.01</ele>
        <time>2018-02-23T09:13:21Z</time>
      </trkpt>
      <trkpt lat="44.25122" lon="4.16022">
        <ele>442.35</ele>
        <time>2018-02-23T09:13:39Z</time>
      </trkpt>
      <trkpt lat="44.2512" lon="4.16047">
        <ele>446.6</ele>
        <time>2018-02-23T09:13:55Z</time>
      </trkpt>
      <trkpt lat="44.25119" lon="4.16074">
        <ele>455.81</ele>
        <time>2018-02-23T09:14:37Z</time>
      </trkpt>
      <trkpt lat="44.25129" lon="4.16095">
        <ele>449.63</ele>
        <time>2018-02-23T09:14:49Z</time>
      </trkpt>
      <trkpt lat="44.2514" lon="4.16116">
        <ele>451.53</ele>
        <time>2018-02-23T09:15:03Z</time>
      </trkpt>
      <trkpt lat="44.25155" lon="4.16133">
        <ele>453.43</ele>
        <time>2018-02-23T09:15:37Z</time>
      </trkpt>
      <trkpt lat="44.2518" lon="4.16157">
        <ele>460.4</ele>
        <time>2018-02-23T09:16:33Z</time>
      </trkpt>
      <trkpt lat="44.25195" lon="4.16173">
        <ele>454.68</ele>
        <time>2018-02-23T09:17:05Z</time>
      </trkpt>
      <trkpt lat="44.25212" lon="4.16184">
        <ele>460.83</ele>
        <time>2018-02-23T09:17:19Z</time>
      </trkpt>
      <trkpt lat="44.25228" lon="4.16196">
        <ele>459.27</ele>
        <time>2018-02-23T09:17:33Z</time>
      </trkpt>
      <trkpt lat="44.25234" lon="4.16221">
        <ele>457.65</ele>
        <time>2018-02-23T09:17:47Z</time>
      </trkpt>
      <trkpt lat="44.25245" lon="4.16243">
        <ele>461.46</ele>
        <time>2018-02-23T09:18:03Z</time>
      </trkpt>
      <trkpt lat="44.25256" lon="4.16265">
        <ele>466.47</ele>
        <time>2018-02-23T09:18:33Z</time>
      </trkpt>
      <trkpt lat="44.25278" lon="4.16293">
        <ele>456.31</ele>
        <time>2018-02-23T09:22:17Z</time>
      </trkpt>
      <trkpt lat="44.25293" lon="4.1631">
        <ele>465.12</ele>
        <time>2018-02-23T09:22:59Z</time>
      </trkpt>
      <trkpt lat="44.25313" lon="4.16311">
        <ele>455.23</ele>
        <time>2018-02-23T09:23:23Z</time>
      </trkpt>
      <trkpt lat="44.25328" lon="4.16327">
        <ele>455.76</ele>
        <time>2018-02-23T09:23:37Z</time>
      </trkpt>
      <trkpt lat="44.25343" lon="4.16343">
        <ele>451.9</ele>
        <time>2018-02-23T09:23:55Z</time>
      </trkpt>
      <trkpt lat="44.25356" lon="4.16361">
        <ele>449.08</ele>
        <time>2018-02-23T09:24:21Z</time>
      </trkpt>
      <trkpt lat="44.25371" lon="4.16375">
        <ele>435.88</ele>
        <time>2018-02-23T09:24:41Z</time>
      </trkpt>
      <trkpt lat="44.25389" lon="4.16385">
        <ele>433.68</ele>
        <time>2018-02-23T09:24:59Z</time>
      </trkpt>
      <trkpt lat="44.25401" lon="4.16408">
        <ele>442.32</ele>
        <time>2018-02-23T09:25:27Z</time>
      </trkpt>
      <trkpt lat="44.25419" lon="4.16426">
        <ele>443.17</ele>
        <time>2018-02-23T09:25:45Z</time>
      </trkpt>
      <trkpt lat="44.25436" lon="4.16439">
        <ele>436.33</ele>
        <time>2018-02-23T09:26:05Z</time>
      </trkpt>
      <trkpt lat="44.25453" lon="4.16457">
        <ele>431.52</ele>
        <time>2018-02-23T09:26:47Z</time>
      </trkpt>
      <trkpt lat="44.25468" lon="4.16472">
        <ele>430.35</ele>
        <time>2018-02-23T09:27:11Z</time>
      </trkpt>
      <trkpt lat="44.25481" lon="4.1649">
        <ele>438.31</ele>
        <time>2018-02-23T09:27:27Z</time>
      </trkpt>
      <trkpt lat="44.25495" lon="4.16508">
        <ele>440.49</ele>
        <time>2018-02-23T09:27:41Z</time>
      </trkpt>
      <trkpt lat="44.2551" lon="4.16524">
        <ele>445.17</ele>
        <time>2018-02-23T09:27:57Z</time>
      </trkpt>
      <trkpt lat="44.25526" lon="4.1654">
        <ele>443.73</ele>
        <time>2018-02-23T09:28:19Z</time>
      </trkpt>
      <trkpt lat="44.25542" lon="4.16556">
        <ele>442.13</ele>
        <time>2018-02-23T09:28:35Z</time>
      </trkpt>
      <trkpt lat="44.25561" lon="4.16563">
        <ele>429.58</ele>
        <time>2018-02-23T09:29:19Z</time>
      </trkpt>
      <trkpt lat="44.25579" lon="4.16567">
        <ele>431.03</ele>
        <time>2018-02-23T09:29:35Z</time>
      </trkpt>
      <trkpt lat="44.25597" lon="4.16573">
        <ele>423.13</ele>
        <time>2018-02-23T09:30:03Z</time>
      </trkpt>
      <trkpt lat="44.25613" lon="4.16584">
        <ele>427.81</ele>
        <time>2018-02-23T09:30:29Z</time>
      </trkpt>
      <trkpt lat="44.25632" lon="4.16591">
        <ele>423.38</ele>
        <time>2018-02-23T09:30:45Z</time>
      </trkpt>
      <trkpt lat="44.25648" lon="4.16603">
        <ele>423.06</ele>
        <time>2018-02-23T09:31:01Z</time>
      </trkpt>
      <trkpt lat="44.25667" lon="4.16611">
        <ele>418.9</ele>
        <time>2018-02-23T09:31:21Z</time>
      </trkpt>
      <trkpt lat="44.25683" lon="4.16622">
        <ele>409.09</ele>
        <time>2018-02-23T09:31:57Z</time>
      </trkpt>
      <trkpt lat="44.25696" lon="4.16641">
        <ele>412.81</ele>
        <time>2018-02-23T09:32:11Z</time>
      </trkpt>
      <trkpt lat="44.25709" lon="4.16657">
        <ele>409</ele>
        <time>2018-02-23T09:33:47Z</time>
      </trkpt>
      <trkpt lat="44.25726" lon="4.16669">
        <ele>412.96</ele>
        <time>2018-02-23T09:42:15Z</time>
      </trkpt>
      <trkpt lat="44.25744" lon="4.16677">
        <ele>408.81</ele>
        <time>2018-02-23T09:42:47Z</time>
      </trkpt>
      <trkpt lat="44.25741" lon="4.16705">
        <ele>413.12</ele>
        <time>2018-02-23T09:43:11Z</time>
      </trkpt>
      <trkpt lat="44.25751" lon="4.16729">
        <ele>419.35</ele>
        <time>2018-02-23T09:43:27Z</time>
      </trkpt>
      <trkpt lat="44.25765" lon="4.16746">
        <ele>419.79</ele>
        <time>2018-02-23T09:43:45Z</time>
      </trkpt>
      <trkpt lat="44.25772" lon="4.1677">
        <ele>424.63</ele>
        <time>2018-02-23T09:44:05Z</time>
      </trkpt>
      <trkpt lat="44.25781" lon="4.16793">
        <ele>424.42</ele>
        <time>2018-02-23T09:44:21Z</time>
      </trkpt>
      <trkpt lat="44.25791" lon="4.16815">
        <ele>425.04</ele>
        <time>2018-02-23T09:44:37Z</time>
      </trkpt>
      <trkpt lat="44.25802" lon="4.16837">
        <ele>421.27</ele>
        <time>2018-02-23T09:44:57Z</time>
      </trkpt>
      <trkpt lat="44.25811" lon="4.16861">
        <ele>417.9</ele>
        <time>2018-02-23T09:45:17Z</time>
      </trkpt>
      <trkpt lat="44.25822" lon="4.16882">
        <ele>419.01</ele>
        <time>2018-02-23T09:46:19Z</time>
      </trkpt>
      <trkpt lat="44.25824" lon="4.16907">
        <ele>416.4</ele>
        <time>2018-02-23T09:47:07Z</time>
      </trkpt>
      <trkpt lat="44.25828" lon="4.16932">
        <ele>421.12</ele>
        <time>2018-02-23T09:47:43Z</time>
      </trkpt>
      <trkpt lat="44.25835" lon="4.16958">
        <ele>418.82</ele>
        <time>2018-02-23T09:48:05Z</time>
      </trkpt>
      <trkpt lat="44.2585" lon="4.1698">
        <ele>411.61</ele>
        <time>2018-02-23T09:48:45Z</time>
      </trkpt>
      <trkpt lat="44.25859" lon="4.17006">
        <ele>414</ele>
        <time>2018-02-23T09:49:07Z</time>
      </trkpt>
      <trkpt lat="44.25869" lon="4.17029">
        <ele>411.19</ele>
        <time>2018-02-23T09:49:25Z</time>
      </trkpt>
      <trkpt lat="44.25867" lon="4.17056">
        <ele>405.85</ele>
        <time>2018-02-23T09:49:51Z</time>
      </trkpt>
      <trkpt lat="44.25874" lon="4.17081">
        <ele>398.41</ele>
        <time>2018-02-23T09:50:09Z</time>
      </trkpt>
      <trkpt lat="44.2587" lon="4.17106">
        <ele>396.83</ele>
        <time>2018-02-23T09:50:29Z</time>
      </trkpt>
      <trkpt lat="44.25872" lon="4.17135">
        <ele>395.8</ele>
        <time>2018-02-23T09:50:43Z</time>
      </trkpt>
      <trkpt lat="44.25883" lon="4.17157">
        <ele>392.45</ele>
        <time>2018-02-23T09:51:07Z</time>
      </trkpt>
      <trkpt lat="44.25895" lon="4.17177">
        <ele>388.15</ele>
        <time>2018-02-23T09:51:29Z</time>
      </trkpt>
      <trkpt lat="44.25905" lon="4.17201">
        <ele>388.79</ele>
        <time>2018-02-23T09:51:52Z</time>
      </trkpt>
      <trkpt lat="44.25905" lon="4.17228">
        <ele>382.62</ele>
        <time>2018-02-23T09:52:20Z</time>
      </trkpt>
      <trkpt lat="44.25906" lon="4.17253">
        <ele>387.73</ele>
        <time>2018-02-23T09:52:34Z</time>
      </trkpt>
      <trkpt lat="44.25898" lon="4.17279">
        <ele>382.29</ele>
        <time>2018-02-23T09:53:12Z</time>
      </trkpt>
      <trkpt lat="44.25913" lon="4.17293">
        <ele>372.55</ele>
        <time>2018-02-23T09:56:18Z</time>
      </trkpt>
      <trkpt lat="44.25927" lon="4.17311">
        <ele>371.77</ele>
        <time>2018-02-23T09:56:38Z</time>
      </trkpt>
      <trkpt lat="44.25943" lon="4.17326">
        <ele>366.83</ele>
        <time>2018-02-23T09:57:36Z</time>
      </trkpt>
      <trkpt lat="44.25955" lon="4.17345">
        <ele>365.08</ele>
        <time>2018-02-23T09:57:58Z</time>
      </trkpt>
      <trkpt lat="44.25967" lon="4.17366">
        <ele>368.1</ele>
        <time>2018-02-23T09:59:14Z</time>
      </trkpt>
      <trkpt lat="44.25981" lon="4.17381">
        <ele>370.74</ele>
        <time>2018-02-23T09:59:26Z</time>
      </trkpt>
      <trkpt lat="44.25995" lon="4.17399">
        <ele>371.64</ele>
        <time>2018-02-23T09:59:44Z</time>
      </trkpt>
      <trkpt lat="44.25999" lon="4.17424">
        <ele>372.13</ele>
        <time>2018-02-23T10:00:00Z</time>
      </trkpt>
      <trkpt lat="44.25999" lon="4.17452">
        <ele>380.68</ele>
        <time>2018-02-23T10:00:20Z</time>
      </trkpt>
      <trkpt lat="44.26007" lon="4.17478">
        <ele>373.19</ele>
        <time>2018-02-23T10:00:46Z</time>
      </trkpt>
      <trkpt lat="44.26013" lon="4.17502">
        <ele>373.12</ele>
        <time>2018-02-23T10:01:06Z</time>
      </trkpt>
      <trkpt lat="44.26019" lon="4.17529">
        <ele>369.34</ele>
        <time>2018-02-23T10:01:30Z</time>
      </trkpt>
      <trkpt lat="44.2602" lon="4.17555">
        <ele>368.82</ele>
        <time>2018-02-23T10:01:46Z</time>
      </trkpt>
      <trkpt lat="44.26023" lon="4.17582">
        <ele>371.05</ele>
        <time>2018-02-23T10:02:00Z</time>
      </trkpt>
      <trkpt lat="44.26027" lon="4.17608">
        <ele>366.79</ele>
        <time>2018-02-23T10:02:16Z</time>
      </trkpt>
      <trkpt lat="44.26024" lon="4.17634">
        <ele>369.88</ele>
        <time>2018-02-23T10:02:44Z</time>
      </trkpt>
      <trkpt lat="44.26042" lon="4.17637">
        <ele>357.51</ele>
        <time>2018-02-23T10:03:16Z</time>
      </trkpt>
      <trkpt lat="44.26059" lon="4.17652">
        <ele>348.3</ele>
        <time>2018-02-23T10:03:30Z</time>
      </trkpt>
      <trkpt lat="44.26072" lon="4.1767">
        <ele>345</ele>
        <time>2018-02-23T10:03:46Z</time>
      </trkpt>
      <trkpt lat="44.26086" lon="4.17687">
        <ele>354.07</ele>
        <time>2018-02-23T10:04:44Z</time>
      </trkpt>
      <trkpt lat="44.26103" lon="4.17676">
        <ele>346.04</ele>
        <time>2018-02-23T10:05:10Z</time>
      </trkpt>
      <trkpt lat="44.2612" lon="4.17665">
        <ele>346.21</ele>
        <time>2018-02-23T10:05:20Z</time>
      </trkpt>
      <trkpt lat="44.26141" lon="4.17658">
        <ele>350.23</ele>
        <time>2018-02-23T10:05:56Z</time>
      </trkpt>
      <trkpt lat="44.26159" lon="4.17653">
        <ele>354.54</ele>
        <time>2018-02-23T10:06:14Z</time>
      </trkpt>
      <trkpt lat="44.26178" lon="4.17649">
        <ele>353</ele>
        <time>2018-02-23T10:06:26Z</time>
      </trkpt>
      <trkpt lat="44.262" lon="4.17644">
        <ele>348.9</ele>
        <time>2018-02-23T10:06:52Z</time>
      </trkpt>
      <trkpt lat="44.2622" lon="4.17649">
        <ele>351.07</ele>
        <time>2018-02-23T10:07:08Z</time>
      </trkpt>
      <trkpt lat="44.26238" lon="4.17655">
        <ele>349.58</ele>
        <time>2018-02-23T10:07:22Z</time>
      </trkpt>
      <trkpt lat="44.26256" lon="4.17657">
        <ele>352.64</ele>
        <time>2018-02-23T10:07:44Z</time>
      </trkpt>
      <trkpt lat="44.26274" lon="4.1767">
        <ele>354.72</ele>
        <time>2018-02-23T10:08:02Z</time>
      </trkpt>
      <trkpt lat="44.26291" lon="4.17683">
        <ele>355.88</ele>
        <time>2018-02-23T10:08:20Z</time>
      </trkpt>
      <trkpt lat="44.2631" lon="4.17692">
        <ele>350.69</ele>
        <time>2018-02-23T10:08:42Z</time>
      </trkpt>
      <trkpt lat="44.2633" lon="4.17681">
        <ele>346.94</ele>
        <time>2018-02-23T10:09:04Z</time>
      </trkpt>
      <trkpt lat="44.26347" lon="4.17666">
        <ele>350.74</ele>
        <time>2018-02-23T10:09:22Z</time>
      </trkpt>
      <trkpt lat="44.26349" lon="4.1764">
        <ele>346.61</ele>
        <time>2018-02-23T10:09:42Z</time>
      </trkpt>
      <trkpt lat="44.26355" lon="4.17614">
        <ele>349.69</ele>
        <time>2018-02-23T10:09:56Z</time>
      </trkpt>
      <trkpt lat="44.26346" lon="4.17592">
        <ele>351.31</ele>
        <time>2018-02-23T10:10:14Z</time>
      </trkpt>
      <trkpt lat="44.26329" lon="4.17573">
        <ele>354.6</ele>
        <time>2018-02-23T10:10:37Z</time>
      </trkpt>
      <trkpt lat="44.26331" lon="4.17546">
        <ele>355.83</ele>
        <time>2018-02-23T10:10:49Z</time>
      </trkpt>
      <trkpt lat="44.26329" lon="4.17521">
        <ele>357.09</ele>
        <time>2018-02-23T10:11:11Z</time>
      </trkpt>
      <trkpt lat="44.26336" lon="4.17495">
        <ele>351.7</ele>
        <time>2018-02-23T10:12:33Z</time>
      </trkpt>
      <trkpt lat="44.26342" lon="4.17469">
        <ele>348.67</ele>
        <time>2018-02-23T10:12:47Z</time>
      </trkpt>
      <trkpt lat="44.2635" lon="4.17445">
        <ele>347.99</ele>
        <time>2018-02-23T10:13:07Z</time>
      </trkpt>
      <trkpt lat="44.26363" lon="4.17423">
        <ele>350.22</ele>
        <time>2018-02-23T10:13:25Z</time>
      </trkpt>
      <trkpt lat="44.2638" lon="4.17411">
        <ele>348.54</ele>
        <time>2018-02-23T10:13:43Z</time>
      </trkpt>
      <trkpt lat="44.26398" lon="4.17396">
        <ele>342.84</ele>
        <time>2018-02-23T10:14:11Z</time>
      </trkpt>
      <trkpt lat="44.26413" lon="4.17381">
        <ele>339.1</ele>
        <time>2018-02-23T10:14:29Z</time>
      </trkpt>
      <trkpt lat="44.26427" lon="4.17364">
        <ele>344.54</ele>
        <time>2018-02-23T10:17:39Z</time>
      </trkpt>
      <trkpt lat="44.26445" lon="4.17358">
        <ele>342.39</ele>
        <time>2018-02-23T10:17:51Z</time>
      </trkpt>
      <trkpt lat="44.26462" lon="4.17347">
        <ele>334.71</ele>
        <time>2018-02-23T10:18:39Z</time>
      </trkpt>
      <trkpt lat="44.26478" lon="4.17335">
        <ele>329.67</ele>
        <time>2018-02-23T10:19:09Z</time>
      </trkpt>
      <trkpt lat="44.26496" lon="4.1733">
        <ele>325.05</ele>
        <time>2018-02-23T10:19:33Z</time>
      </trkpt>
      <trkpt lat="44.26514" lon="4.17327">
        <ele>319.11</ele>
        <time>2018-02-23T10:19:59Z</time>
      </trkpt>
      <trkpt lat="44.26533" lon="4.1732">
        <ele>315.83</ele>
        <time>2018-02-23T10:20:57Z</time>
      </trkpt>
      <trkpt lat="44.26549" lon="4.17306">
        <ele>312.53</ele>
        <time>2018-02-23T10:22:19Z</time>
      </trkpt>
      <trkpt lat="44.26562" lon="4.17284">
        <ele>311.54</ele>
        <time>2018-02-23T10:22:41Z</time>
      </trkpt>
      <trkpt lat="44.26567" lon="4.17257">
        <ele>313.61</ele>
        <time>2018-02-23T10:23:35Z</time>
      </trkpt>
      <trkpt lat="44.26572" lon="4.17233">
        <ele>315.78</ele>
        <time>2018-02-23T10:23:55Z</time>
      </trkpt>
      <trkpt lat="44.26577" lon="4.17258">
        <ele>319.77</ele>
        <time>2018-02-23T10:24:47Z</time>
      </trkpt>
      <trkpt lat="44.26579" lon="4.17231">
        <ele>323.78</ele>
        <time>2018-02-23T10:28:41Z</time>
      </trkpt>
      <trkpt lat="44.26575" lon="4.17258">
        <ele>323.06</ele>
        <time>2018-02-23T10:34:01Z</time>
      </trkpt>
      <trkpt lat="44.26631" lon="4.17243">
        <ele>327.9</ele>
        <time>2018-02-23T10:55:05Z</time>
      </trkpt>
      <trkpt lat="44.26581" lon="4.1725">
        <ele>323.07</ele>
        <time>2018-02-23T10:55:10Z</time>
      </trkpt>
      <trkpt lat="44.266" lon="4.17253">
        <ele>324.31</ele>
        <time>2018-02-23T11:12:22Z</time>
      </trkpt>
      <trkpt lat="44.2661" lon="4.17231">
        <ele>328.04</ele>
        <time>2018-02-23T11:13:44Z</time>
      </trkpt>
      <trkpt lat="44.26604" lon="4.17205">
        <ele>327.52</ele>
        <time>2018-02-23T11:15:14Z</time>
      </trkpt>
      <trkpt lat="44.26599" lon="4.1723">
        <ele>354.58</ele>
        <time>2018-02-23T11:28:32Z</time>
      </trkpt>
      <trkpt lat="44.26609" lon="4.17201">
        <ele>328.57</ele>
        <time>2018-02-23T11:37:50Z</time>
      </trkpt>
      <trkpt lat="44.266" lon="4.17223">
        <ele>344.54</ele>
        <time>2018-02-23T11:54:31Z</time>
      </trkpt>
      <trkpt lat="44.26602" lon="4.17191">
        <ele>344.7</ele>
        <time>2018-02-23T12:05:34Z</time>
      </trkpt>
      <trkpt lat="44.26612" lon="4.17213">
        <ele>330.95</ele>
        <time>2018-02-23T12:06:00Z</time>
      </trkpt>
      <trkpt lat="44.26609" lon="4.17239">
        <ele>327.98</ele>
        <time>2018-02-23T12:06:46Z</time>
      </trkpt>
      <trkpt lat="44.26594" lon="4.17255">
        <ele>329.56</ele>
        <time>2018-02-23T12:07:22Z</time>
      </trkpt>
      <trkpt lat="44.26578" lon="4.17243">
        <ele>328</ele>
        <time>2018-02-23T12:27:35Z</time>
      </trkpt>
      <trkpt lat="44.26565" lon="4.17263">
        <ele>309.01</ele>
        <time>2018-02-23T14:12:27Z</time>
      </trkpt>
      <trkpt lat="44.26571" lon="4.17289">
        <ele>303.98</ele>
        <time>2018-02-23T14:12:51Z</time>
      </trkpt>
      <trkpt lat="44.26587" lon="4.17302">
        <ele>308.64</ele>
        <time>2018-02-23T14:15:37Z</time>
      </trkpt>
      <trkpt lat="44.26606" lon="4.17299">
        <ele>298.37</ele>
        <time>2018-02-23T14:15:55Z</time>
      </trkpt>
      <trkpt lat="44.26623" lon="4.17287">
        <ele>300.39</ele>
        <time>2018-02-23T14:16:11Z</time>
      </trkpt>
      <trkpt lat="44.2664" lon="4.17273">
        <ele>288.15</ele>
        <time>2018-02-23T14:16:43Z</time>
      </trkpt>
      <trkpt lat="44.26655" lon="4.17256">
        <ele>290.17</ele>
        <time>2018-02-23T14:17:05Z</time>
      </trkpt>
      <trkpt lat="44.26668" lon="4.17239">
        <ele>288.2</ele>
        <time>2018-02-23T14:17:27Z</time>
      </trkpt>
      <trkpt lat="44.26686" lon="4.17232">
        <ele>295.19</ele>
        <time>2018-02-23T14:17:47Z</time>
      </trkpt>
      <trkpt lat="44.26701" lon="4.17218">
        <ele>285.24</ele>
        <time>2018-02-23T14:18:19Z</time>
      </trkpt>
      <trkpt lat="44.26717" lon="4.17204">
        <ele>283.03</ele>
        <time>2018-02-23T14:18:39Z</time>
      </trkpt>
      <trkpt lat="44.26729" lon="4.17185">
        <ele>278.85</ele>
        <time>2018-02-23T14:18:59Z</time>
      </trkpt>
      <trkpt lat="44.26746" lon="4.1717">
        <ele>276.49</ele>
        <time>2018-02-23T14:19:23Z</time>
      </trkpt>
      <trkpt lat="44.26759" lon="4.1715">
        <ele>270.53</ele>
        <time>2018-02-23T14:19:43Z</time>
      </trkpt>
      <trkpt lat="44.26769" lon="4.17127">
        <ele>266.36</ele>
        <time>2018-02-23T14:20:03Z</time>
      </trkpt>
      <trkpt lat="44.26783" lon="4.17109">
        <ele>262.23</ele>
        <time>2018-02-23T14:20:23Z</time>
      </trkpt>
      <trkpt lat="44.26797" lon="4.17089">
        <ele>262.66</ele>
        <time>2018-02-23T14:20:37Z</time>
      </trkpt>
      <trkpt lat="44.26789" lon="4.17064">
        <ele>261.75</ele>
        <time>2018-02-23T14:20:53Z</time>
      </trkpt>
      <trkpt lat="44.26778" lon="4.17043">
        <ele>259.32</ele>
        <time>2018-02-23T14:21:09Z</time>
      </trkpt>
      <trkpt lat="44.26764" lon="4.17023">
        <ele>254.37</ele>
        <time>2018-02-23T14:21:31Z</time>
      </trkpt>
      <trkpt lat="44.26756" lon="4.16997">
        <ele>262.13</ele>
        <time>2018-02-23T14:21:49Z</time>
      </trkpt>
      <trkpt lat="44.26738" lon="4.16986">
        <ele>252.68</ele>
        <time>2018-02-23T14:22:23Z</time>
      </trkpt>
      <trkpt lat="44.26725" lon="4.16966">
        <ele>254.02</ele>
        <time>2018-02-23T14:22:39Z</time>
      </trkpt>
      <trkpt lat="44.26708" lon="4.16954">
        <ele>240.65</ele>
        <time>2018-02-23T14:23:01Z</time>
      </trkpt>
      <trkpt lat="44.2669" lon="4.16946">
        <ele>237.41</ele>
        <time>2018-02-23T14:23:19Z</time>
      </trkpt>
      <trkpt lat="44.26673" lon="4.16934">
        <ele>230.69</ele>
        <time>2018-02-23T14:23:41Z</time>
      </trkpt>
      <trkpt lat="44.26656" lon="4.16922">
        <ele>225.05</ele>
        <time>2018-02-23T14:24:01Z</time>
      </trkpt>
      <trkpt lat="44.26642" lon="4.16903">
        <ele>219.98</ele>
        <time>2018-02-23T14:24:25Z</time>
      </trkpt>
      <trkpt lat="44.26631" lon="4.16882">
        <ele>217.32</ele>
        <time>2018-02-23T14:24:45Z</time>
      </trkpt>
      <trkpt lat="44.26618" lon="4.16864">
        <ele>215.3</ele>
        <time>2018-02-23T14:25:01Z</time>
      </trkpt>
      <trkpt lat="44.26599" lon="4.16861">
        <ele>215.39</ele>
        <time>2018-02-23T14:25:17Z</time>
      </trkpt>
      <trkpt lat="44.26581" lon="4.16856">
        <ele>201.44</ele>
        <time>2018-02-23T14:25:41Z</time>
      </trkpt>
      <trkpt lat="44.26562" lon="4.16864">
        <ele>202.83</ele>
        <time>2018-02-23T14:25:59Z</time>
      </trkpt>
      <trkpt lat="44.26565" lon="4.16839">
        <ele>197.95</ele>
        <time>2018-02-23T14:26:55Z</time>
      </trkpt>
      <trkpt lat="44.266" lon="4.16819">
        <ele>196.18</ele>
        <time>2018-02-23T14:27:09Z</time>
      </trkpt>
      <trkpt lat="44.26588" lon="4.16797">
        <ele>203.57</ele>
        <time>2018-02-23T14:27:21Z</time>
      </trkpt>
      <trkpt lat="44.26601" lon="4.16778">
        <ele>201.7</ele>
        <time>2018-02-23T14:27:47Z</time>
      </trkpt>
      <trkpt lat="44.26618" lon="4.16764">
        <ele>202.93</ele>
        <time>2018-02-23T14:28:15Z</time>
      </trkpt>
      <trkpt lat="44.2663" lon="4.16745">
        <ele>191.1</ele>
        <time>2018-02-23T14:28:31Z</time>
      </trkpt>
      <trkpt lat="44.2664" lon="4.16722">
        <ele>193.02</ele>
        <time>2018-02-23T14:28:47Z</time>
      </trkpt>
      <trkpt lat="44.26648" lon="4.16698">
        <ele>188.47</ele>
        <time>2018-02-23T14:29:05Z</time>
      </trkpt>
      <trkpt lat="44.26662" lon="4.16677">
        <ele>194.29</ele>
        <time>2018-02-23T14:29:29Z</time>
      </trkpt>
      <trkpt lat="44.26673" lon="4.16654">
        <ele>190.92</ele>
        <time>2018-02-23T14:29:43Z</time>
      </trkpt>
      <trkpt lat="44.26673" lon="4.16624">
        <ele>185.76</ele>
        <time>2018-02-23T14:30:11Z</time>
      </trkpt>
      <trkpt lat="44.26655" lon="4.16617">
        <ele>187.47</ele>
        <time>2018-02-23T14:30:33Z</time>
      </trkpt>
      <trkpt lat="44.26636" lon="4.16612">
        <ele>189.61</ele>
        <time>2018-02-23T14:30:49Z</time>
      </trkpt>
      <trkpt lat="44.26618" lon="4.16612">
        <ele>189.93</ele>
        <time>2018-02-23T14:31:13Z</time>
      </trkpt>
      <trkpt lat="44.26599" lon="4.16613">
        <ele>192.25</ele>
        <time>2018-02-23T14:31:29Z</time>
      </trkpt>
      <trkpt lat="44.26583" lon="4.16603">
        <ele>194.83</ele>
        <time>2018-02-23T14:31:39Z</time>
      </trkpt>
      <trkpt lat="44.26564" lon="4.16599">
        <ele>186.49</ele>
        <time>2018-02-23T14:31:59Z</time>
      </trkpt>
      <trkpt lat="44.26545" lon="4.16594">
        <ele>195.28</ele>
        <time>2018-02-23T14:32:19Z</time>
      </trkpt>
      <trkpt lat="44.26528" lon="4.16587">
        <ele>202.45</ele>
        <time>2018-02-23T14:32:35Z</time>
      </trkpt>
      <trkpt lat="44.26508" lon="4.16591">
        <ele>201.92</ele>
        <time>2018-02-23T14:32:49Z</time>
      </trkpt>
      <trkpt lat="44.26488" lon="4.16589">
        <ele>210.8</ele>
        <time>2018-02-23T14:33:07Z</time>
      </trkpt>
      <trkpt lat="44.2647" lon="4.1658">
        <ele>205.64</ele>
        <time>2018-02-23T14:33:27Z</time>
      </trkpt>
      <trkpt lat="44.26452" lon="4.1657">
        <ele>207.11</ele>
        <time>2018-02-23T14:33:55Z</time>
      </trkpt>
      <trkpt lat="44.26434" lon="4.16563">
        <ele>208.36</ele>
        <time>2018-02-23T14:34:07Z</time>
      </trkpt>
      <trkpt lat="44.26418" lon="4.16547">
        <ele>202.14</ele>
        <time>2018-02-23T14:34:27Z</time>
      </trkpt>
      <trkpt lat="44.26399" lon="4.16539">
        <ele>199.14</ele>
        <time>2018-02-23T14:34:45Z</time>
      </trkpt>
      <trkpt lat="44.26382" lon="4.16527">
        <ele>199.29</ele>
        <time>2018-02-23T14:34:55Z</time>
      </trkpt>
      <trkpt lat="44.26363" lon="4.16527">
        <ele>202.09</ele>
        <time>2018-02-23T14:35:19Z</time>
      </trkpt>
      <trkpt lat="44.26346" lon="4.16516">
        <ele>200.21</ele>
        <time>2018-02-23T14:35:35Z</time>
      </trkpt>
      <trkpt lat="44.26326" lon="4.16511">
        <ele>201.89</ele>
        <time>2018-02-23T14:35:51Z</time>
      </trkpt>
      <trkpt lat="44.26307" lon="4.16514">
        <ele>196.39</ele>
        <time>2018-02-23T14:36:11Z</time>
      </trkpt>
      <trkpt lat="44.26293" lon="4.16499">
        <ele>202</ele>
        <time>2018-02-23T14:41:17Z</time>
      </trkpt>
      <trkpt lat="44.2627" lon="4.16491">
        <ele>205.59</ele>
        <time>2018-02-23T14:48:01Z</time>
      </trkpt>
      <trkpt lat="44.26251" lon="4.16485">
        <ele>200.06</ele>
        <time>2018-02-23T14:48:15Z</time>
      </trkpt>
      <trkpt lat="44.26232" lon="4.16474">
        <ele>198.46</ele>
        <time>2018-02-23T14:48:31Z</time>
      </trkpt>
      <trkpt lat="44.26221" lon="4.16453">
        <ele>200.17</ele>
        <time>2018-02-23T14:48:45Z</time>
      </trkpt>
      <trkpt lat="44.26226" lon="4.16426">
        <ele>195.61</ele>
        <time>2018-02-23T14:49:09Z</time>
      </trkpt>
      <trkpt lat="44.26232" lon="4.16402">
        <ele>198.68</ele>
        <time>2018-02-23T14:49:23Z</time>
      </trkpt>
      <trkpt lat="44.26226" lon="4.16377">
        <ele>197.3</ele>
        <time>2018-02-23T14:49:37Z</time>
      </trkpt>
      <trkpt lat="44.26216" lon="4.16353">
        <ele>201.75</ele>
        <time>2018-02-23T14:49:51Z</time>
      </trkpt>
      <trkpt lat="44.26207" lon="4.16331">
        <ele>203.78</ele>
        <time>2018-02-23T14:50:09Z</time>
      </trkpt>
      <trkpt lat="44.26199" lon="4.16306">
        <ele>199.25</ele>
        <time>2018-02-23T14:50:25Z</time>
      </trkpt>
      <trkpt lat="44.26187" lon="4.16285">
        <ele>197.04</ele>
        <time>2018-02-23T14:50:43Z</time>
      </trkpt>
      <trkpt lat="44.26173" lon="4.16268">
        <ele>200.71</ele>
        <time>2018-02-23T14:50:57Z</time>
      </trkpt>
      <trkpt lat="44.26153" lon="4.16262">
        <ele>198.38</ele>
        <time>2018-02-23T14:51:13Z</time>
      </trkpt>
      <trkpt lat="44.26136" lon="4.16252">
        <ele>202.2</ele>
        <time>2018-02-23T14:51:29Z</time>
      </trkpt>
      <trkpt lat="44.26118" lon="4.16246">
        <ele>203.06</ele>
        <time>2018-02-23T14:51:41Z</time>
      </trkpt>
      <trkpt lat="44.26104" lon="4.16228">
        <ele>203.09</ele>
        <time>2018-02-23T14:52:03Z</time>
      </trkpt>
      <trkpt lat="44.261" lon="4.16201">
        <ele>207.06</ele>
        <time>2018-02-23T14:52:19Z</time>
      </trkpt>
      <trkpt lat="44.26095" lon="4.16176">
        <ele>208.93</ele>
        <time>2018-02-23T14:52:29Z</time>
      </trkpt>
      <trkpt lat="44.26085" lon="4.16154">
        <ele>206.52</ele>
        <time>2018-02-23T14:52:49Z</time>
      </trkpt>
      <trkpt lat="44.26083" lon="4.16127">
        <ele>198.23</ele>
        <time>2018-02-23T14:53:07Z</time>
      </trkpt>
      <trkpt lat="44.26093" lon="4.16098">
        <ele>201.04</ele>
        <time>2018-02-23T14:53:19Z</time>
      </trkpt>
      <trkpt lat="44.26095" lon="4.16072">
        <ele>201.11</ele>
        <time>2018-02-23T14:53:37Z</time>
      </trkpt>
      <trkpt lat="44.26102" lon="4.16047">
        <ele>201.79</ele>
        <time>2018-02-23T14:54:37Z</time>
      </trkpt>
      <trkpt lat="44.2611" lon="4.16023">
        <ele>202.35</ele>
        <time>2018-02-23T14:54:53Z</time>
      </trkpt>
      <trkpt lat="44.26127" lon="4.16015">
        <ele>200.77</ele>
        <time>2018-02-23T14:55:15Z</time>
      </trkpt>
      <trkpt lat="44.26134" lon="4.15992">
        <ele>202.22</ele>
        <time>2018-02-23T14:55:39Z</time>
      </trkpt>
      <trkpt lat="44.26132" lon="4.15966">
        <ele>205.08</ele>
        <time>2018-02-23T14:55:53Z</time>
      </trkpt>
      <trkpt lat="44.26131" lon="4.1594">
        <ele>201.27</ele>
        <time>2018-02-23T14:56:11Z</time>
      </trkpt>
      <trkpt lat="44.26136" lon="4.15915">
        <ele>204.11</ele>
        <time>2018-02-23T14:56:29Z</time>
      </trkpt>
      <trkpt lat="44.26141" lon="4.1589">
        <ele>201.29</ele>
        <time>2018-02-23T14:56:47Z</time>
      </trkpt>
      <trkpt lat="44.26143" lon="4.15863">
        <ele>201.51</ele>
        <time>2018-02-23T14:57:09Z</time>
      </trkpt>
      <trkpt lat="44.26141" lon="4.15836">
        <ele>199.01</ele>
        <time>2018-02-23T14:58:07Z</time>
      </trkpt>
      <trkpt lat="44.26143" lon="4.15811">
        <ele>199.24</ele>
        <time>2018-02-23T14:58:17Z</time>
      </trkpt>
      <trkpt lat="44.26162" lon="4.15808">
        <ele>201.07</ele>
        <time>2018-02-23T14:58:49Z</time>
      </trkpt>
      <trkpt lat="44.26178" lon="4.15825">
        <ele>207.47</ele>
        <time>2018-02-23T14:59:08Z</time>
      </trkpt>
      <trkpt lat="44.26198" lon="4.15824">
        <ele>190.02</ele>
        <time>2018-02-23T14:59:39Z</time>
      </trkpt>
      <trkpt lat="44.26214" lon="4.15837">
        <ele>181.07</ele>
        <time>2018-02-23T14:59:57Z</time>
      </trkpt>
      <trkpt lat="44.26233" lon="4.15839">
        <ele>198.31</ele>
        <time>2018-02-23T15:00:17Z</time>
      </trkpt>
      <trkpt lat="44.2625" lon="4.15843">
        <ele>187.69</ele>
        <time>2018-02-23T15:00:45Z</time>
      </trkpt>
      <trkpt lat="44.26257" lon="4.15817">
        <ele>193.8</ele>
        <time>2018-02-23T15:00:59Z</time>
      </trkpt>
      <trkpt lat="44.26264" lon="4.15788">
        <ele>197.89</ele>
        <time>2018-02-23T15:01:17Z</time>
      </trkpt>
      <trkpt lat="44.26267" lon="4.1576">
        <ele>195.6</ele>
        <time>2018-02-23T15:01:35Z</time>
      </trkpt>
    </trkseg>
  </trk>
</gpx>